Pagrindinis puslapis
METAR-TAF:

METAR-TAF

Oro uostai :

Eskišechiras, Turkija

platuma: 39-47N, ilguma: 030-34E, Aukštis: 785 m

METAR: trūkstamas

Laikas: 23:41 (20:41 UTC)

Prognozė

Ataskaita buvo paskelbta 1 valandą ir 1 minutes, ne 19:40 UTC
Prognozė galioja nuo 15 metu 21 UTC su 16 metu 06 UTC
Vėjas 2 kt nuo kintamojo kryptimis
Matomumas: 6000 m
Tapsmas
nuo 16 metu 00 UTC su 16 metu 02 UTC
Matomumas: 2000 m
Rūkas lopais
Tapsmas
nuo 16 metu 02 UTC su 16 metu 04 UTC
Matomumas: 0500 m
ne aukštis 200 ft
rūkas
Laikinai
nuo 16 metu 04 UTC su 16 metu 06 UTC
Matomumas: 0200 m

TAF: LTBI 151940Z 1521/1606 VRB02KT 6000 NSC BECMG 1600/1602 2000 BCFG BECMG 1602/1604 0500 FG VV002 TEMPO 1604/1606 0200

Orai ataskaitas ir orų prognozės (METAR, TAF).

turimą stotys yra geltonos ir raudonos taškus žemėlapyje.

Perkelti pele per norėdami pamatyti stoties vardą.

Tada spustelėkite, norėdami matyti oro stebėjimo ir prognozės.

Norėdami pakeisti žemėlapį: spustelėkite ant žalios mygtukų su juodo kryžiaus žemyn,; žalią mygtuką su brūkšneliu, jei norite nutolinti; arba žalių rodyklių gretimoms žemėlapius.


METAR-TAF: